Time;durP1;ratioP1;P1;durP2;ratioP2;P2;SDS_P1;SDS_P2;PMS_P1;PMS_P2;Temp;Humidity;BMP_temperature;BMP_pressure;BME280_temperature;BME280_humidity;BME280_pressure;Samples;Min_cycle;Max_cycle;Signal;HPM_P1;HPM_P2
2022/10/20 02:46:27;;;;;;;3.70;1.73;;;26.20;64.10;;;;;;5786289;23;83233;-86
2022/10/20 02:48:53;;;;;;;2.95;1.75;;;26.20;64.10;;;;;;4864068;28;85813;-87
2022/10/20 02:51:19;;;;;;;4.05;1.77;;;26.20;64.10;;;;;;4869533;28;85562;-87
2022/10/20 02:53:45;;;;;;;4.85;1.58;;;26.20;64.10;;;;;;4895428;28;81630;-87
2022/10/20 02:56:11;;;;;;;4.30;1.63;;;26.20;64.10;;;;;;4883701;28;85633;-86
2022/10/20 02:58:37;;;;;;;3.80;1.80;;;26.20;64.10;;;;;;4885364;28;82720;-86
2022/10/20 03:01:03;;;;;;;3.65;1.30;;;26.20;64.70;;;;;;4870852;28;84895;-87
2022/10/20 03:03:29;;;;;;;3.33;1.58;;;26.20;64.00;;;;;;4887995;28;81119;-86
2022/10/20 03:05:55;;;;;;;3.25;1.55;;;26.20;64.70;;;;;;4868625;28;84043;-87
2022/10/20 03:08:21;;;;;;;2.17;1.33;;;26.20;64.00;;;;;;4870851;28;86483;-86
2022/10/20 03:10:47;;;;;;;2.90;1.48;;;26.20;64.00;;;;;;4877053;28;86329;-86
2022/10/20 03:13:14;;;;;;;2.67;1.35;;;26.20;64.00;;;;;;4866292;28;83795;-87
2022/10/20 03:15:40;;;;;;;3.22;1.35;;;26.20;64.00;;;;;;4886327;28;82348;-86
2022/10/20 03:18:06;;;;;;;2.83;1.40;;;26.20;64.00;;;;;;4870057;28;86368;-86
2022/10/20 03:20:33;;;;;;;5.03;1.52;;;26.20;64.70;;;;;;4879638;28;85999;-86
2022/10/20 03:22:59;;;;;;;5.00;1.25;;;26.20;64.00;;;;;;4871364;28;84249;-86
2022/10/20 03:25:25;;;;;;;4.63;1.30;;;26.20;64.00;;;;;;4881263;28;81109;-86
2022/10/20 03:27:50;;;;;;;2.70;1.23;;;26.20;64.00;;;;;;4875223;28;85916;-85
2022/10/20 03:30:16;;;;;;;2.85;1.67;;;26.20;64.00;;;;;;4870360;28;85355;-86
2022/10/20 03:32:42;;;;;;;3.78;1.30;;;26.10;63.90;;;;;;4886825;28;84121;-86
2022/10/20 03:35:08;;;;;;;2.38;1.15;;;26.10;63.90;;;;;;4873085;28;85054;-86
2022/10/20 03:37:34;;;;;;;2.97;1.65;;;26.10;63.90;;;;;;4867802;28;85739;-85
2022/10/20 03:39:59;;;;;;;4.93;1.20;;;26.10;63.90;;;;;;4883914;28;82278;-85
2022/10/20 03:42:25;;;;;;;2.75;1.20;;;26.20;64.00;;;;;;4891233;28;81668;-86
2022/10/20 03:44:51;;;;;;;8.82;1.33;;;26.10;64.50;;;;;;4898845;28;82254;-86
2022/10/20 03:47:16;;;;;;;2.80;1.40;;;26.10;63.90;;;;;;4887352;28;85808;-86
2022/10/20 03:49:42;;;;;;;3.38;1.25;;;26.10;63.90;;;;;;4902605;28;81324;-86
2022/10/20 03:52:08;;;;;;;2.80;1.48;;;26.10;63.90;;;;;;4887485;28;83783;-88
2022/10/20 03:54:35;;;;;;;2.50;1.48;;;26.10;63.80;;;;;;4890583;28;85849;-87
2022/10/20 03:57:00;;;;;;;2.65;1.27;;;26.10;63.90;;;;;;4888875;28;87104;-88
2022/10/20 03:59:26;;;;;;;2.60;1.40;;;26.10;63.90;;;;;;4871042;28;88867;-87
2022/10/20 04:01:53;;;;;;;4.28;1.65;;;26.10;63.90;;;;;;4888103;28;83546;-87
2022/10/20 04:04:18;;;;;;;4.35;1.25;;;26.10;63.90;;;;;;4900550;28;82197;-89
2022/10/20 04:06:44;;;;;;;3.90;1.80;;;26.10;63.90;;;;;;4908907;28;82633;-89
2022/10/20 04:09:10;;;;;;;4.38;1.30;;;26.10;63.90;;;;;;4890230;28;85096;-88
2022/10/20 04:11:35;;;;;;;3.80;1.42;;;26.10;63.90;;;;;;4886984;28;83356;-83
2022/10/20 04:14:01;;;;;;;3.05;1.02;;;26.20;70.00;;;;;;4904415;28;85700;-89
2022/10/20 04:16:27;;;;;;;2.60;1.05;;;26.40;64.00;;;;;;4888852;28;86023;-89
2022/10/20 04:18:53;;;;;;;2.15;1.58;;;26.30;63.40;;;;;;4904422;28;82432;-88
2022/10/20 04:21:19;;;;;;;3.00;1.23;;;26.30;63.60;;;;;;4894639;28;83799;-88
2022/10/20 04:23:44;;;;;;;6.47;1.20;;;26.20;63.70;;;;;;4899566;23;85226;-77
2022/10/20 04:26:12;;;;;;;2.80;1.58;;;26.00;63.80;;;;;;4899327;28;82403;-77
2022/10/20 04:28:38;;;;;;;3.03;1.25;;;25.80;63.90;;;;;;4898019;28;82537;-77
2022/10/20 04:31:05;;;;;;;3.33;1.52;;;25.50;64.30;;;;;;4902249;28;81455;-76
2022/10/20 04:33:31;;;;;;;3.70;1.10;;;25.30;64.70;;;;;;4901292;28;81876;-77
2022/10/20 04:35:59;;;;;;;2.70;1.20;;;25.10;65.10;;;;;;4901641;28;82614;-77
2022/10/20 04:38:25;;;;;;;4.75;1.77;;;25.00;65.50;;;;;;4904217;28;83030;-76
2022/10/20 04:40:58;;;;;;;2.50;1.20;;;24.90;65.70;;;;;;4901631;28;81865;-77
2022/10/20 04:43:24;;;;;;;2.75;1.20;;;24.80;66.00;;;;;;4902019;28;81725;-76
2022/10/20 04:45:52;;;;;;;3.05;1.55;;;24.60;66.30;;;;;;4901365;28;82479;-78
2022/10/20 04:48:19;;;;;;;3.50;1.27;;;24.60;66.50;;;;;;4879076;28;82815;-77
2022/10/20 04:50:44;;;;;;;2.88;1.45;;;24.50;66.70;;;;;;4874473;28;81805;-77
2022/10/20 04:53:10;;;;;;;3.80;1.00;;;24.40;66.80;;;;;;4883582;28;81744;-76
2022/10/20 04:55:36;;;;;;;2.55;1.00;;;24.40;67.00;;;;;;4876847;28;82055;-76
2022/10/20 04:58:02;;;;;;;1.80;0.95;;;24.40;67.10;;;;;;4883045;28;81949;-77
2022/10/20 05:00:28;;;;;;;2.60;1.08;;;24.40;67.40;;;;;;4882805;28;81904;-75
2022/10/20 05:02:54;;;;;;;1.90;0.88;;;24.30;67.60;;;;;;4881915;28;81001;-77
2022/10/20 05:05:20;;;;;;;4.75;1.20;;;24.30;67.70;;;;;;4888226;28;81906;-76
2022/10/20 05:07:45;;;;;;;7.20;0.90;;;24.30;67.80;;;;;;4893993;28;81925;-76
2022/10/20 05:10:11;;;;;;;6.13;1.00;;;24.30;67.90;;;;;;4880563;28;84257;-76
2022/10/20 05:12:37;;;;;;;5.70;1.30;;;24.30;68.10;;;;;;4883915;28;82063;-79
2022/10/20 05:15:03;;;;;;;4.97;1.00;;;24.30;68.30;;;;;;4884219;28;81955;-76
2022/10/20 05:17:29;;;;;;;3.58;1.38;;;24.30;68.30;;;;;;4887097;28;82340;-77
2022/10/20 05:19:55;;;;;;;5.78;1.25;;;24.30;68.30;;;;;;4883736;28;81203;-77
2022/10/20 05:22:21;;;;;;;2.88;1.00;;;24.30;68.40;;;;;;4886067;28;82396;-77
2022/10/20 05:24:46;;;;;;;3.63;0.93;;;24.30;68.50;;;;;;4876807;28;82123;-77
2022/10/20 05:27:12;;;;;;;7.97;1.25;;;24.20;68.80;;;;;;4885680;28;81977;-76
2022/10/20 05:29:38;;;;;;;3.53;1.15;;;24.20;68.80;;;;;;4885418;28;81321;-78
2022/10/20 05:32:04;;;;;;;4.03;0.95;;;24.10;68.80;;;;;;4880694;28;81655;-77
2022/10/20 05:34:29;;;;;;;3.28;0.95;;;24.10;68.90;;;;;;4876433;28;83136;-78
2022/10/20 05:36:55;;;;;;;2.55;0.82;;;24.10;69.00;;;;;;4881377;28;82838;-77
2022/10/20 05:39:21;;;;;;;2.70;1.58;;;24.10;69.10;;;;;;4886148;28;82318;-77
2022/10/20 05:41:46;;;;;;;2.72;1.08;;;24.10;69.10;;;;;;4883997;28;83084;-78
2022/10/20 05:44:13;;;;;;;5.47;1.05;;;24.10;69.30;;;;;;4885690;28;82261;-78
2022/10/20 05:46:40;;;;;;;6.50;1.15;;;24.10;69.30;;;;;;4881152;28;81997;-80
2022/10/20 05:49:09;;;;;;;3.20;1.35;;;24.10;69.40;;;;;;4880559;28;82648;-79
2022/10/20 05:51:35;;;;;;;4.03;1.35;;;24.00;69.30;;;;;;4882241;28;81813;-78
2022/10/20 05:54:02;;;;;;;4.80;1.67;;;24.00;69.40;;;;;;4860866;28;83945;-77
2022/10/20 05:56:29;;;;;;;6.93;1.70;;;24.00;69.40;;;;;;4871778;28;83492;-78
2022/10/20 05:58:55;;;;;;;6.45;1.48;;;24.00;69.50;;;;;;4884344;28;82498;-78
2022/10/20 06:01:24;;;;;;;5.28;1.45;;;24.00;69.30;;;;;;4886191;28;82778;-78
2022/10/20 06:03:51;;;;;;;4.60;1.10;;;24.00;69.30;;;;;;4885381;28;83066;-77
2022/10/20 06:06:18;;;;;;;5.22;1.23;;;24.00;69.30;;;;;;4883617;28;81992;-79
2022/10/20 06:08:44;;;;;;;6.05;1.20;;;24.00;69.40;;;;;;4881203;28;81739;-78
2022/10/20 06:11:12;;;;;;;8.02;1.20;;;24.00;69.40;;;;;;4882538;28;82040;-79
2022/10/20 06:13:38;;;;;;;5.53;1.60;;;24.00;69.50;;;;;;4884083;28;81650;-80
2022/10/20 06:16:05;;;;;;;3.75;1.42;;;24.00;69.50;;;;;;4885069;28;81903;-79
2022/10/20 06:18:32;;;;;;;6.10;1.10;;;24.00;69.50;;;;;;4883079;28;82206;-79
2022/10/20 06:21:06;;;;;;;6.30;1.27;;;24.00;69.40;;;;;;4893850;28;81759;-78
2022/10/20 06:23:32;;;;;;;3.60;1.40;;;24.00;69.40;;;;;;4883143;28;82656;-79
2022/10/20 06:26:09;;;;;;;6.20;1.27;;;24.00;69.40;;;;;;4892407;28;83181;-79
2022/10/20 06:28:36;;;;;;;3.80;0.98;;;24.00;69.40;;;;;;4864173;28;82478;-79
2022/10/20 06:31:25;;;;;;;6.47;1.30;;;24.00;69.40;;;;;;4883384;28;82570;-79
2022/10/20 06:33:52;;;;;;;6.10;1.45;;;24.00;69.40;;;;;;4888606;28;82870;-77
2022/10/20 06:36:19;;;;;;;6.25;1.75;;;24.00;69.40;;;;;;4884256;28;82357;-78
2022/10/20 06:38:45;;;;;;;7.03;1.58;;;23.90;69.30;;;;;;4878435;28;81462;-79
2022/10/20 06:41:16;;;;;;;6.03;1.85;;;24.00;69.30;;;;;;4881626;28;81732;-78
2022/10/20 06:43:43;;;;;;;7.18;2.20;;;23.90;69.20;;;;;;4883497;28;81642;-79
2022/10/20 06:46:14;;;;;;;8.55;2.42;;;23.90;69.20;;;;;;4883883;28;82471;-79
2022/10/20 06:48:39;;;;;;;8.52;2.38;;;24.00;69.30;;;;;;4883933;28;82499;-79
2022/10/20 06:51:12;;;;;;;6.97;2.22;;;23.90;69.20;;;;;;4882550;28;81941;-78
2022/10/20 06:53:38;;;;;;;7.53;2.58;;;23.90;69.20;;;;;;4870739;28;82693;-79
2022/10/20 06:56:12;;;;;;;8.10;2.60;;;23.90;69.20;;;;;;4885461;28;81720;-79
2022/10/20 06:58:39;;;;;;;8.50;2.42;;;23.90;69.80;;;;;;4880855;28;81595;-78
2022/10/20 07:01:08;;;;;;;9.98;2.53;;;23.90;69.10;;;;;;4884044;28;81279;-79
2022/10/20 07:03:35;;;;;;;12.70;2.90;;;23.90;69.10;;;;;;4882654;28;82081;-79
2022/10/20 07:06:03;;;;;;;9.60;2.47;;;24.00;69.10;;;;;;4874056;28;81194;-79
2022/10/20 07:08:30;;;;;;;11.48;3.20;;;24.00;69.10;;;;;;4883378;28;81241;-79
2022/10/20 07:11:08;;;;;;;11.13;2.88;;;24.00;69.00;;;;;;4884118;28;82158;-78
2022/10/20 07:13:35;;;;;;;9.32;3.15;;;24.00;69.00;;;;;;4883389;28;83443;-78
2022/10/20 07:16:02;;;;;;;9.95;3.75;;;24.00;69.00;;;;;;4883295;28;81962;-79
2022/10/20 07:18:29;;;;;;;11.40;3.60;;;24.00;68.90;;;;;;4883633;28;81793;-79
2022/10/20 07:20:59;;;;;;;12.48;3.78;;;24.00;68.90;;;;;;4866381;28;83261;-79
2022/10/20 07:23:27;;;;;;;13.70;3.50;;;24.00;68.90;;;;;;4883749;28;82049;-78
2022/10/20 07:26:03;;;;;;;10.30;3.70;;;24.00;68.90;;;;;;4883093;28;82322;-78
2022/10/20 07:28:29;;;;;;;11.20;3.92;;;24.00;68.80;;;;;;4884619;28;81218;-79
2022/10/20 07:30:55;;;;;;;10.35;3.58;;;24.00;68.70;;;;;;4889593;28;82360;-79
2022/10/20 07:33:21;;;;;;;10.57;4.00;;;24.00;68.70;;;;;;4884160;28;81917;-78
2022/10/20 07:35:47;;;;;;;11.15;3.38;;;24.10;68.70;;;;;;4882913;28;81317;-79
2022/10/20 07:38:13;;;;;;;10.02;3.28;;;24.10;68.70;;;;;;4883540;28;82768;-78
2022/10/20 07:40:39;;;;;;;12.10;3.53;;;24.00;68.60;;;;;;4883368;28;81612;-79
2022/10/20 07:43:04;;;;;;;9.80;3.05;;;24.10;68.60;;;;;;4886786;28;81547;-78
2022/10/20 07:45:30;;;;;;;11.60;3.97;;;24.10;68.60;;;;;;4885193;28;83528;-78
2022/10/20 07:47:56;;;;;;;10.30;3.55;;;24.10;69.20;;;;;;4881397;28;81503;-79
2022/10/20 07:50:22;;;;;;;11.48;3.75;;;24.10;68.50;;;;;;4874319;28;81553;-78
2022/10/20 07:52:51;;;;;;;10.75;3.90;;;24.10;68.40;;;;;;4887672;28;82196;-78
2022/10/20 07:55:18;;;;;;;12.23;3.55;;;24.10;68.40;;;;;;4882544;28;82081;-78
2022/10/20 07:57:44;;;;;;;12.13;3.75;;;24.10;68.30;;;;;;4883589;28;81822;-80
2022/10/20 08:00:11;;;;;;;10.60;3.33;;;24.10;68.30;;;;;;4887286;28;81548;-79
2022/10/20 08:02:36;;;;;;;12.57;3.67;;;24.20;68.30;;;;;;4884823;28;84412;-79
2022/10/20 08:05:02;;;;;;;9.05;3.30;;;24.10;68.20;;;;;;4879956;28;82914;-79
2022/10/20 08:07:28;;;;;;;9.50;3.65;;;24.10;68.20;;;;;;4882408;28;81285;-79
2022/10/20 08:09:53;;;;;;;8.40;3.60;;;24.20;68.20;;;;;;4895838;28;81902;-78
2022/10/20 08:12:19;;;;;;;10.77;3.25;;;24.20;68.10;;;;;;4900345;28;81473;-78
2022/10/20 08:14:45;;;;;;;7.63;3.22;;;24.20;68.10;;;;;;4885366;28;82024;-79
2022/10/20 08:17:10;;;;;;;10.05;3.65;;;24.30;68.10;;;;;;4890809;28;81157;-80
2022/10/20 08:19:36;;;;;;;10.90;3.13;;;24.30;68.00;;;;;;4881784;28;82772;-78
2022/10/20 08:22:02;;;;;;;10.55;3.35;;;24.30;67.90;;;;;;4892458;28;81688;-79
2022/10/20 08:24:28;;;;;;;11.13;3.97;;;24.30;67.90;;;;;;4892014;28;81708;-79
2022/10/20 08:26:53;;;;;;;10.90;3.47;;;24.30;67.80;;;;;;4883024;28;82554;-79
2022/10/20 08:29:19;;;;;;;9.75;3.40;;;24.40;67.70;;;;;;4881879;28;81856;-79
2022/10/20 08:31:45;;;;;;;10.98;3.85;;;24.40;67.70;;;;;;4883188;28;81813;-80
2022/10/20 08:34:10;;;;;;;12.88;3.10;;;24.40;67.60;;;;;;4894913;28;81983;-79
2022/10/20 08:36:36;;;;;;;10.75;3.65;;;24.40;67.60;;;;;;4883243;28;81796;-79
2022/10/20 08:39:02;;;;;;;9.63;3.53;;;24.40;67.50;;;;;;4880612;28;81972;-79
2022/10/20 08:41:32;;;;;;;9.35;3.83;;;24.40;67.50;;;;;;4883280;28;82674;-79
2022/10/20 08:44:02;;;;;;;8.30;2.72;;;24.40;67.50;;;;;;4883380;28;82947;-80
2022/10/20 08:46:32;;;;;;;8.27;3.15;;;24.40;67.50;;;;;;4883036;28;81376;-79
2022/10/20 08:48:57;;;;;;;;;;;24.40;67.40;;;;;;4883293;28;81529;-79
2022/10/20 08:51:27;;;;;;;9.98;3.17;;;24.40;67.30;;;;;;4887776;28;82874;-78
2022/10/20 08:53:57;;;;;;;8.18;3.28;;;24.40;67.40;;;;;;4882205;28;82103;-78
2022/10/20 08:56:26;;;;;;;8.45;3.10;;;24.40;67.40;;;;;;4882486;28;81580;-79
2022/10/20 08:58:51;;;;;;;9.45;3.63;;;24.40;67.40;;;;;;4875854;28;81843;-79
2022/10/20 09:01:21;;;;;;;8.57;3.13;;;24.40;67.30;;;;;;4882692;28;81842;-80
2022/10/20 09:03:55;;;;;;;8.13;3.00;;;24.40;67.30;;;;;;4876075;28;82048;-79
2022/10/20 09:06:21;;;;;;;7.32;2.83;;;24.40;67.30;;;;;;4882515;28;82019;-78
2022/10/20 09:08:47;;;;;;;9.23;3.70;;;24.40;67.30;;;;;;4886267;28;81301;-78
2022/10/20 09:11:21;;;;;;;9.02;3.03;;;24.40;67.20;;;;;;4886266;28;81333;-79
2022/10/20 09:13:47;;;;;;;8.32;3.50;;;24.40;67.20;;;;;;4880719;28;81205;-78
2022/10/20 09:16:37;;;;;;;9.68;3.30;;;24.40;67.10;;;;;;4886548;28;82580;-79
2022/10/20 09:19:05;;;;;;;6.13;2.55;;;24.50;67.10;;;;;;4882168;28;83158;-78
2022/10/20 09:21:34;;;;;;;7.75;2.60;;;24.50;67.10;;;;;;4881664;28;82771;-79
2022/10/20 09:24:03;;;;;;;10.45;2.92;;;24.50;67.10;;;;;;4884300;28;82046;-79
2022/10/20 09:26:34;;;;;;;8.82;2.92;;;24.50;67.10;;;;;;4882144;28;81760;-80
2022/10/20 09:29:19;;;;;;;7.07;3.00;;;24.40;67.00;;;;;;4885697;28;81752;-80
2022/10/20 09:31:54;;;;;;;5.93;2.47;;;24.50;67.10;;;;;;4879842;28;81936;-79
2022/10/20 09:34:31;;;;;;;8.35;3.17;;;24.50;67.10;;;;;;4881582;28;81867;-79
2022/10/20 09:37:06;;;;;;;7.18;2.90;;;24.50;67.00;;;;;;4873135;28;81850;-80
2022/10/20 09:39:45;;;;;;;7.40;2.45;;;24.40;67.00;;;;;;4881434;28;81416;-80
2022/10/20 09:42:32;;;;;;;7.50;2.70;;;24.40;66.90;;;;;;4885327;28;82352;-79
2022/10/20 09:45:05;;;;;;;7.55;2.33;;;24.40;67.00;;;;;;4880697;28;83039;-79
2022/10/20 09:47:33;;;;;;;9.35;3.17;;;24.40;67.00;;;;;;4887732;28;81862;-78
2022/10/20 09:50:03;;;;;;;8.13;2.33;;;24.40;66.90;;;;;;4890832;28;81711;-79
2022/10/20 09:52:32;;;;;;;;;;;24.40;66.90;;;;;;4885971;28;82005;-80
2022/10/20 09:55:06;;;;;;;7.68;2.83;;;24.40;66.90;;;;;;4885802;28;81874;-79
2022/10/20 09:57:33;;;;;;;8.38;2.60;;;24.40;66.90;;;;;;4880031;28;81510;-80
2022/10/20 09:59:59;;;;;;;7.30;3.05;;;24.40;66.90;;;;;;4885399;28;81841;-79
2022/10/20 10:02:27;;;;;;;8.60;2.85;;;24.40;66.90;;;;;;4885165;28;82879;-79
2022/10/20 10:05:10;;;;;;;7.65;2.85;;;24.40;66.90;;;;;;4885057;28;81990;-80
2022/10/20 10:07:36;;;;;;;9.18;2.67;;;24.40;66.90;;;;;;4884287;28;82587;-79
2022/10/20 10:10:23;;;;;;;8.88;2.97;;;24.40;66.90;;;;;;4880184;28;83354;-79
2022/10/20 10:12:54;;;;;;;7.60;2.92;;;24.40;66.90;;;;;;4878748;28;82130;-80
2022/10/20 10:15:23;;;;;;;5.53;2.20;;;24.40;66.80;;;;;;4883459;28;83106;-80
2022/10/20 10:17:49;;;;;;;6.65;2.20;;;24.40;66.90;;;;;;4884476;28;81571;-78
2022/10/20 10:20:15;;;;;;;7.95;2.72;;;24.40;66.80;;;;;;4883281;28;81980;-78
2022/10/20 10:22:42;;;;;;;6.40;2.45;;;24.40;66.80;;;;;;4880769;28;81636;-79
2022/10/20 10:25:24;;;;;;;5.13;2.10;;;24.40;66.80;;;;;;4883033;28;81953;-78
2022/10/20 10:28:07;;;;;;;6.10;2.15;;;24.40;66.70;;;;;;4878426;28;83125;-79
2022/10/20 10:30:36;;;;;;;7.00;2.33;;;24.40;66.70;;;;;;4875764;28;81282;-79
2022/10/20 10:33:26;;;;;;;5.03;2.20;;;24.40;66.60;;;;;;4884271;28;82697;-79
2022/10/20 10:35:52;;;;;;;7.70;2.80;;;24.40;66.70;;;;;;4883029;28;82762;-80
2022/10/20 10:38:18;;;;;;;7.93;3.15;;;24.40;66.70;;;;;;4874654;28;81767;-79
2022/10/20 10:41:03;;;;;;;5.55;2.20;;;24.40;66.70;;;;;;4883257;28;81749;-78
2022/10/20 10:43:53;;;;;;;7.13;2.15;;;24.40;66.70;;;;;;4870767;28;82149;-78
2022/10/20 10:46:22;;;;;;;6.70;2.55;;;24.40;66.70;;;;;;4871081;28;82883;-78
2022/10/20 10:49:14;;;;;;;;;;;24.40;66.70;;;;;;4887674;28;81894;-79
2022/10/20 10:52:21;;;;;;;6.80;2.28;;;24.40;66.60;;;;;;4878712;28;82733;-79
2022/10/20 10:55:11;;;;;;;7.43;2.40;;;24.40;66.70;;;;;;4877671;28;82836;-78
2022/10/20 10:57:39;;;;;;;8.68;2.70;;;24.40;66.70;;;;;;4872145;28;81368;-79
2022/10/20 11:00:26;;;;;;;6.30;2.25;;;24.40;66.70;;;;;;4883392;28;83015;-79
2022/10/20 11:03:15;;;;;;;6.57;2.55;;;24.40;66.70;;;;;;4876863;28;81514;-79
2022/10/20 11:06:04;;;;;;;6.28;2.63;;;24.40;66.70;;;;;;4878087;28;82381;-79
2022/10/20 11:08:50;;;;;;;6.53;2.33;;;24.40;66.70;;;;;;4878555;28;81979;-79
2022/10/20 11:11:36;;;;;;;6.70;2.45;;;24.40;66.70;;;;;;4880264;28;81741;-79
2022/10/20 11:14:29;;;;;;;8.77;2.10;;;24.40;67.40;;;;;;4882421;28;81911;-80
2022/10/20 11:17:07;;;;;;;6.30;2.28;;;24.40;66.70;;;;;;4882591;28;81610;-78
2022/10/20 11:20:02;;;;;;;6.43;2.42;;;24.40;66.70;;;;;;4882721;28;81272;-79
2022/10/20 11:22:28;;;;;;;;;;;24.40;66.70;;;;;;4852083;28;81276;-79
2022/10/20 11:25:01;;;;;;;8.85;2.33;;;24.40;66.70;;;;;;4880754;28;82023;-79
2022/10/20 11:27:32;;;;;;;7.85;2.40;;;24.50;66.70;;;;;;4879933;28;83409;-80
2022/10/20 11:30:04;;;;;;;4.78;2.20;;;24.50;66.80;;;;;;4874233;28;82391;-79
2022/10/20 11:32:42;;;;;;;6.63;2.03;;;24.50;66.80;;;;;;4878282;28;81784;-79
2022/10/20 11:35:20;;;;;;;5.20;2.28;;;24.50;66.90;;;;;;4872845;28;81762;-81
2022/10/20 11:38:02;;;;;;;5.88;2.65;;;24.50;66.80;;;;;;4876604;28;81986;-78
2022/10/20 11:40:34;;;;;;;7.90;2.35;;;24.50;66.90;;;;;;4877685;28;81398;-79
2022/10/20 11:43:18;;;;;;;5.60;2.10;;;24.50;67.00;;;;;;4871332;28;81221;-78
2022/10/20 11:45:55;;;;;;;8.25;2.35;;;24.50;67.10;;;;;;4881876;28;81842;-78
2022/10/20 11:48:28;;;;;;;8.10;2.20;;;24.50;67.10;;;;;;4873231;28;81703;-79
2022/10/20 11:51:02;;;;;;;8.60;2.63;;;24.60;67.20;;;;;;4881664;28;82021;-79
2022/10/20 11:54:00;;;;;;;5.30;2.28;;;24.60;67.10;;;;;;4880955;28;83071;-79
2022/10/20 11:56:37;;;;;;;9.70;2.45;;;24.60;67.10;;;;;;4871216;28;81846;-78
2022/10/20 11:59:24;;;;;;;12.07;2.97;;;24.60;67.00;;;;;;4880525;28;81783;-78
2022/10/20 12:02:09;;;;;;;8.23;2.72;;;24.60;66.90;;;;;;4882252;28;81534;-78
2022/10/20 12:04:51;;;;;;;10.55;2.65;;;24.60;66.80;;;;;;4876356;28;81869;-78
2022/10/20 12:07:48;;;;;;;11.20;2.53;;;24.70;66.80;;;;;;4879361;28;81393;-78
2022/10/20 12:10:42;;;;;;;9.65;2.13;;;24.70;67.40;;;;;;4877028;28;81585;-78
2022/10/20 12:13:34;;;;;;;7.35;2.03;;;24.70;66.70;;;;;;4883030;28;81232;-78
2022/10/20 12:16:00;;;;;;;8.88;2.05;;;24.80;66.50;;;;;;4881964;28;81672;-78
2022/10/20 12:18:29;;;;;;;6.55;2.30;;;25.00;65.90;;;;;;4864711;28;84629;-78
2022/10/20 12:21:00;;;;;;;8.15;2.50;;;25.50;64.90;;;;;;4880474;28;83177;-78
2022/10/20 12:23:52;;;;;;;9.85;2.25;;;26.00;63.40;;;;;;4881246;28;82841;-78
2022/10/20 12:26:31;;;;;;;9.63;2.28;;;26.70;61.80;;;;;;4872189;28;81569;-78
2022/10/20 12:29:05;;;;;;;5.35;1.85;;;27.00;60.60;;;;;;4882066;28;83257;-78
2022/10/20 12:32:20;;;;;;;9.95;1.88;;;27.30;60.10;;;;;;4883269;28;81749;-78
2022/10/20 12:34:46;;;;;;;;;;;27.00;60.20;;;;;;4804862;28;82693;-78
2022/10/20 12:37:22;;;;;;;8.70;1.90;;;26.60;61.10;;;;;;4882940;28;81502;-78
2022/10/20 12:39:49;;;;;;;6.65;2.22;;;26.30;61.90;;;;;;4880241;28;82747;-78
2022/10/20 12:42:22;;;;;;;6.88;2.03;;;26.20;62.40;;;;;;4881972;28;81575;-79
2022/10/20 12:44:49;;;;;;;7.30;1.95;;;26.00;62.60;;;;;;4882331;28;82519;-79
2022/10/20 12:47:24;;;;;;;7.03;2.03;;;26.00;63.00;;;;;;4879935;28;82615;-79
2022/10/20 12:50:00;;;;;;;6.28;2.22;;;26.00;63.10;;;;;;4874520;28;82568;-79
2022/10/20 12:52:32;;;;;;;5.30;2.05;;;25.90;63.10;;;;;;4880783;28;81916;-79
2022/10/20 12:55:34;;;;;;;5.57;1.77;;;25.90;63.20;;;;;;4880316;28;82068;-78
2022/10/20 12:58:31;;;;;;;6.00;1.58;;;25.90;63.20;;;;;;4831944;28;81585;-79
2022/10/20 13:00:57;;;;;;;5.65;1.65;;;25.80;63.20;;;;;;4867924;28;81896;-79
2022/10/20 13:03:45;;;;;;;3.75;1.55;;;25.80;63.30;;;;;;4880426;28;82116;-78
2022/10/20 13:06:25;;;;;;;6.80;1.92;;;25.80;63.40;;;;;;4881010;28;81937;-79
2022/10/20 13:09:03;;;;;;;4.80;2.08;;;25.70;63.30;;;;;;4881669;28;81503;-79
2022/10/20 13:11:36;;;;;;;7.85;1.92;;;25.70;63.30;;;;;;4880654;28;81733;-79
2022/10/20 13:14:44;;;;;;;6.03;2.20;;;25.70;63.40;;;;;;4879845;28;82909;-79
2022/10/20 13:17:14;;;;;;;5.70;1.98;;;25.80;62.80;;;;;;4883359;28;82964;-79
2022/10/20 13:19:45;;;;;;;5.18;2.00;;;26.30;61.90;;;;;;4883287;28;81788;-78
2022/10/20 13:22:39;;;;;;;4.35;2.00;;;26.70;60.70;;;;;;4885436;28;82021;-79
2022/10/20 13:25:13;;;;;;;6.68;1.52;;;27.00;59.80;;;;;;4879673;28;81835;-79
2022/10/20 13:27:39;;;;;;;5.53;1.77;;;26.80;60.20;;;;;;4864159;28;82696;-79
2022/10/20 13:30:09;;;;;;;4.78;2.10;;;26.60;60.60;;;;;;4885074;28;81627;-78
2022/10/20 13:32:47;;;;;;;4.95;1.95;;;26.40;61.20;;;;;;4865972;28;85772;-79
2022/10/20 13:35:20;;;;;;;5.15;2.60;;;26.30;61.40;;;;;;4867010;28;83619;-80
2022/10/20 13:38:21;;;;;;;5.40;2.08;;;26.20;61.50;;;;;;4883322;28;81310;-79
2022/10/20 13:40:56;;;;;;;3.30;1.35;;;26.10;61.60;;;;;;4883221;28;82338;-79
2022/10/20 13:44:07;;;;;;;3.65;1.70;;;26.10;61.80;;;;;;4877308;28;81884;-79
2022/10/20 13:46:58;;;;;;;6.15;2.47;;;26.00;61.70;;;;;;4883700;28;82856;-78
2022/10/20 13:49:24;;;;;;;4.30;1.75;;;26.00;61.90;;;;;;4884686;28;81652;-79
2022/10/20 13:51:54;;;;;;;4.32;1.48;;;26.00;62.00;;;;;;4884780;28;81206;-78
2022/10/20 13:54:26;;;;;;;3.95;1.73;;;25.90;61.90;;;;;;4883229;28;82654;-78
2022/10/20 13:56:52;;;;;;;4.05;2.00;;;25.90;62.00;;;;;;4885704;28;81498;-78
2022/10/20 13:59:21;;;;;;;3.08;1.30;;;25.90;62.00;;;;;;4890532;28;81790;-78
2022/10/20 14:02:00;;;;;;;3.97;1.63;;;25.80;62.00;;;;;;4884013;28;81429;-78
2022/10/20 14:04:33;;;;;;;5.53;1.55;;;25.80;62.10;;;;;;4883783;28;81220;-78
2022/10/20 14:07:11;;;;;;;3.67;2.17;;;25.80;62.20;;;;;;4880764;28;82964;-78
2022/10/20 14:09:38;;;;;;;2.97;1.33;;;25.70;62.20;;;;;;4884390;28;82766;-78
2022/10/20 14:12:12;;;;;;;5.90;1.42;;;25.70;62.30;;;;;;4889946;28;81454;-79
2022/10/20 14:14:43;;;;;;;3.42;1.60;;;25.70;62.40;;;;;;4884530;28;82360;-79
2022/10/20 14:17:18;;;;;;;3.08;1.40;;;25.70;62.40;;;;;;4879704;28;83299;-79
2022/10/20 14:19:44;;;;;;;5.68;1.98;;;25.60;62.40;;;;;;4881356;28;82468;-79
2022/10/20 14:22:22;;;;;;;4.70;1.65;;;25.60;62.50;;;;;;4882920;28;82461;-79
2022/10/20 14:24:56;;;;;;;3.70;1.52;;;25.60;62.60;;;;;;4883528;28;81286;-79
2022/10/20 14:27:24;;;;;;;4.75;2.13;;;25.60;62.60;;;;;;4876960;28;83687;-78
2022/10/20 14:29:51;;;;;;;5.03;1.88;;;25.50;62.60;;;;;;4880890;28;82135;-79
2022/10/20 14:32:23;;;;;;;4.45;2.08;;;25.50;62.70;;;;;;4879113;28;82764;-78
2022/10/20 14:35:12;;;;;;;4.68;2.10;;;25.40;62.80;;;;;;4880073;28;81613;-78
2022/10/20 14:37:42;;;;;;;4.55;2.17;;;25.40;62.90;;;;;;4874137;28;82562;-78
2022/10/20 14:40:28;;;;;;;5.57;2.08;;;25.30;63.00;;;;;;4883000;28;82760;-78
2022/10/20 14:43:14;;;;;;;5.45;2.25;;;25.30;63.10;;;;;;4881293;28;81663;-85
2022/10/20 14:45:49;;;;;;;7.05;3.13;;;25.30;63.20;;;;;;4881397;28;83371;-80
2022/10/20 14:48:15;;;;;;;8.27;2.97;;;25.30;63.20;;;;;;4884632;28;81707;-81
2022/10/20 14:50:41;;;;;;;8.20;2.78;;;25.30;63.40;;;;;;4883819;28;81202;-82
2022/10/20 14:53:23;;;;;;;6.88;3.10;;;25.30;63.50;;;;;;4894727;28;81520;-81
2022/10/20 14:55:49;;;;;;;6.72;2.55;;;25.30;63.50;;;;;;4881984;28;81831;-79
2022/10/20 14:58:35;;;;;;;8.48;2.63;;;25.40;63.40;;;;;;4883613;28;82442;-81
2022/10/20 15:01:28;;;;;;;9.40;2.88;;;25.50;63.10;;;;;;4865962;28;83964;-82
2022/10/20 15:04:20;;;;;;;8.15;2.90;;;25.50;63.00;;;;;;4878173;28;81912;-82
2022/10/20 15:06:46;;;;;;;10.75;2.83;;;25.50;63.20;;;;;;4873863;28;82107;-80
2022/10/20 15:09:49;;;;;;;12.95;3.28;;;25.50;63.40;;;;;;4878855;28;82527;-82
2022/10/20 15:12:26;;;;;;;10.05;2.85;;;25.50;63.90;;;;;;4822161;29;82153;-80
2022/10/20 15:15:01;;;;;;;11.18;3.78;;;25.50;64.20;;;;;;4874579;28;81241;-80
2022/10/20 15:17:29;;;;;;;17.27;3.83;;;25.40;64.40;;;;;;4880630;28;81310;-79
2022/10/20 15:19:55;;;;;;;21.13;3.67;;;25.50;64.70;;;;;;4879746;28;82544;-85
2022/10/20 15:22:21;;;;;;;21.25;3.67;;;25.40;64.90;;;;;;4877085;28;81736;-82
2022/10/20 15:24:48;;;;;;;19.08;3.65;;;25.50;65.20;;;;;;4875019;28;82806;-77
2022/10/20 15:27:16;;;;;;;15.50;3.13;;;25.40;65.50;;;;;;4881775;28;81361;-81
2022/10/20 15:29:51;;;;;;;14.18;3.75;;;25.40;66.10;;;;;;4881812;28;81781;-77
2022/10/20 15:32:17;;;;;;;14.35;3.03;;;25.40;66.30;;;;;;4880455;28;81525;-82
2022/10/20 15:34:43;;;;;;;20.02;3.72;;;25.50;66.40;;;;;;4881464;28;81301;-82
2022/10/20 15:37:09;;;;;;;21.88;3.80;;;25.50;66.70;;;;;;4881278;28;81811;-78
2022/10/20 15:39:35;;;;;;;21.52;4.13;;;25.40;66.90;;;;;;4878453;28;81517;-82
2022/10/20 15:42:04;;;;;;;19.45;4.35;;;25.40;67.20;;;;;;4882884;28;82230;-86
2022/10/20 15:44:29;;;;;;;13.93;3.83;;;25.50;67.70;;;;;;4883162;28;81799;-83
2022/10/20 15:46:55;;;;;;;16.05;3.47;;;25.40;67.70;;;;;;4880425;28;82827;-80
2022/10/20 15:49:22;;;;;;;16.95;4.63;;;25.40;68.00;;;;;;4879177;28;83143;-84
2022/10/20 15:51:51;;;;;;;21.00;4.05;;;25.40;68.30;;;;;;4878963;28;82803;-83
2022/10/20 15:54:20;;;;;;;17.20;4.00;;;25.40;68.30;;;;;;4880806;28;81469;-82